createdAt,value
2018-11-03T00:00:49.254Z,0.00
2018-11-03T00:01:49.248Z,0.00
2018-11-03T00:02:49.235Z,0.00
2018-11-03T00:03:49.235Z,0.00
2018-11-03T00:04:50.760Z,0.00
2018-11-03T00:05:49.206Z,0.00
2018-11-03T00:06:49.190Z,0.00
2018-11-03T00:07:49.204Z,0.00
2018-11-03T00:08:49.188Z,0.00
2018-11-03T00:09:49.165Z,0.00
2018-11-03T00:10:49.585Z,0.00
2018-11-03T00:11:49.137Z,0.00
2018-11-03T00:12:49.131Z,0.00
2018-11-03T00:13:49.125Z,0.00
2018-11-03T00:14:49.112Z,0.00
2018-11-03T00:15:49.096Z,0.00
2018-11-03T00:16:49.130Z,0.00
2018-11-03T00:17:49.127Z,0.00
2018-11-03T00:18:49.065Z,0.00
2018-11-03T00:19:49.052Z,0.00
2018-11-03T00:20:49.038Z,0.00
2018-11-03T00:21:49.029Z,0.00
2018-11-03T00:22:49.051Z,0.00
2018-11-03T00:23:49.010Z,0.00
2018-11-03T00:24:49.005Z,0.00
2018-11-03T00:25:48.985Z,0.00
2018-11-03T00:26:48.977Z,0.00
2018-11-03T00:27:48.975Z,0.00
2018-11-03T00:28:49.010Z,0.00
2018-11-03T00:29:48.951Z,0.00
2018-11-03T00:30:48.940Z,0.00
2018-11-03T00:31:48.939Z,0.00
2018-11-03T00:32:48.916Z,0.00
2018-11-03T00:33:48.922Z,0.00
2018-11-03T00:34:48.936Z,0.00
2018-11-03T00:35:48.879Z,0.00
2018-11-03T00:36:48.872Z,0.00
2018-11-03T00:37:48.860Z,0.00
2018-11-03T00:38:48.861Z,0.00
2018-11-03T00:39:48.846Z,0.00
2018-11-03T00:40:48.905Z,0.00
2018-11-03T00:41:48.831Z,0.00
2018-11-03T00:42:48.866Z,0.00
2018-11-03T00:43:48.801Z,0.00
2018-11-03T00:44:48.785Z,0.00
2018-11-03T00:45:48.790Z,0.00
2018-11-03T00:46:48.823Z,0.00
2018-11-03T00:47:48.781Z,0.00
2018-11-03T00:48:48.758Z,0.00
2018-11-03T00:49:48.742Z,0.00
2018-11-03T00:50:48.725Z,0.00
2018-11-03T00:51:48.714Z,0.00
2018-11-03T00:52:48.742Z,0.00
2018-11-03T00:53:48.692Z,0.00
2018-11-03T00:54:48.697Z,0.00
2018-11-03T00:55:48.669Z,0.00
2018-11-03T00:56:48.664Z,0.00
2018-11-03T00:57:48.653Z,0.00
2018-11-03T00:58:48.689Z,0.00
2018-11-03T00:59:48.628Z,0.00
2018-11-03T01:00:48.624Z,0.00
2018-11-03T01:01:48.605Z,0.00
2018-11-03T01:02:48.615Z,0.00
2018-11-03T01:03:48.588Z,0.00
2018-11-03T01:04:48.606Z,0.00
2018-11-03T01:05:48.565Z,0.00
2018-11-03T01:06:48.561Z,0.00
2018-11-03T01:07:48.548Z,0.00
2018-11-03T01:08:48.544Z,0.00
2018-11-03T01:09:48.517Z,0.00
2018-11-03T01:10:48.611Z,0.00
2018-11-03T01:11:48.501Z,0.00
2018-11-03T01:12:48.488Z,0.00
2018-11-03T01:13:48.475Z,0.00
2018-11-03T01:14:48.465Z,0.00
2018-11-03T01:15:48.474Z,0.00
2018-11-03T01:16:48.493Z,0.00
2018-11-03T01:17:48.432Z,0.00
2018-11-03T01:18:48.421Z,0.00
2018-11-03T01:19:48.410Z,0.00
2018-11-03T01:20:48.402Z,0.00
2018-11-03T01:21:48.422Z,0.00
2018-11-03T01:22:48.410Z,0.00
2018-11-03T01:23:48.445Z,0.00
2018-11-03T01:24:48.357Z,0.00
2018-11-03T01:25:48.358Z,0.00
2018-11-03T01:26:48.342Z,0.00
2018-11-03T01:27:48.329Z,0.00
2018-11-03T01:28:48.368Z,0.00
2018-11-03T01:29:48.308Z,0.00
2018-11-03T01:30:48.300Z,0.00
2018-11-03T01:31:48.288Z,0.00
2018-11-03T01:32:48.272Z,0.00
2018-11-03T01:33:48.281Z,0.00
2018-11-03T01:34:48.535Z,0.00
2018-11-03T01:35:48.241Z,0.00
2018-11-03T01:36:48.236Z,0.00
2018-11-03T01:37:48.224Z,0.00
2018-11-03T01:38:48.212Z,0.00
2018-11-03T01:39:48.216Z,0.00
2018-11-03T01:40:48.219Z,0.00
2018-11-03T01:41:48.177Z,0.00
2018-11-03T01:42:48.166Z,0.00
2018-11-03T01:43:48.160Z,0.00
2018-11-03T01:44:48.147Z,0.00
2018-11-03T01:45:48.148Z,0.00
2018-11-03T01:46:48.173Z,0.00
2018-11-03T01:47:48.122Z,0.00
2018-11-03T01:48:48.108Z,0.00
2018-11-03T01:49:48.101Z,0.00
2018-11-03T01:50:48.093Z,0.00
2018-11-03T01:51:48.072Z,0.00
2018-11-03T01:52:48.095Z,0.00
2018-11-03T01:53:48.066Z,0.00
2018-11-03T01:54:48.040Z,0.00
2018-11-03T01:55:48.033Z,0.00
2018-11-03T01:56:48.026Z,0.00
2018-11-03T01:57:48.004Z,0.00
2018-11-03T01:58:48.041Z,0.00
2018-11-03T01:59:47.993Z,0.00
2018-11-03T02:00:47.973Z,0.00
2018-11-03T02:01:47.964Z,0.00
2018-11-03T02:02:47.971Z,0.00
2018-11-03T02:03:47.944Z,0.00
2018-11-03T02:04:47.970Z,0.00
2018-11-03T02:05:47.920Z,0.00
2018-11-03T02:06:47.915Z,0.00
2018-11-03T02:07:47.917Z,0.00
2018-11-03T02:08:47.893Z,0.00
2018-11-03T02:09:47.884Z,0.00
2018-11-03T02:10:47.913Z,0.00
2018-11-03T02:11:47.866Z,0.00
2018-11-03T02:12:47.846Z,0.00
2018-11-03T02:13:47.835Z,0.00
2018-11-03T02:14:47.847Z,0.00
2018-11-03T02:15:47.826Z,0.00
2018-11-03T02:16:47.857Z,0.00
2018-11-03T02:17:47.805Z,0.00
2018-11-03T02:18:47.782Z,0.00
2018-11-03T02:19:47.772Z,0.00
2018-11-03T02:20:47.790Z,0.00
2018-11-03T02:21:47.757Z,0.00
2018-11-03T02:22:47.784Z,0.00
2018-11-03T02:23:47.733Z,0.00
2018-11-03T02:24:47.717Z,0.00
2018-11-03T02:25:47.711Z,0.00
2018-11-03T02:26:47.706Z,0.00
2018-11-03T02:27:47.718Z,0.00
2018-11-03T02:28:47.719Z,0.00
2018-11-03T02:29:47.669Z,0.00
2018-11-03T02:30:47.664Z,0.00
2018-11-03T02:31:47.647Z,0.00
2018-11-03T02:32:47.633Z,0.00
2018-11-03T02:33:47.623Z,0.00
2018-11-03T02:34:47.673Z,0.00
2018-11-03T02:35:47.600Z,0.00
2018-11-03T02:36:47.593Z,0.00
2018-11-03T02:37:47.579Z,0.00
2018-11-03T02:38:47.580Z,0.00
2018-11-03T02:39:47.563Z,0.00
2018-11-03T02:40:47.608Z,0.00
2018-11-03T02:41:47.536Z,0.00
2018-11-03T02:42:47.525Z,0.00
2018-11-03T02:43:47.517Z,0.00
2018-11-03T02:44:47.504Z,0.00
2018-11-03T02:45:47.493Z,0.00
2018-11-03T02:46:47.531Z,0.00
2018-11-03T02:47:47.477Z,0.00
2018-11-03T02:48:47.468Z,0.00
2018-11-03T02:49:47.451Z,0.00
2018-11-03T02:50:47.442Z,0.00
2018-11-03T02:51:47.461Z,0.00
2018-11-03T02:52:47.482Z,0.00
2018-11-03T02:53:47.413Z,0.00
2018-11-03T02:54:47.419Z,0.00
2018-11-03T02:55:47.396Z,0.00
2018-11-03T02:56:47.377Z,0.00
2018-11-03T02:57:47.385Z,0.00
2018-11-03T02:58:47.401Z,0.00
2018-11-03T02:59:47.350Z,0.00
2018-11-03T03:00:47.356Z,0.00
2018-11-03T03:01:47.330Z,0.00
2018-11-03T03:02:47.320Z,0.00
2018-11-03T03:03:47.304Z,0.00
2018-11-03T03:04:47.363Z,0.00
2018-11-03T03:05:47.280Z,0.00
2018-11-03T03:06:47.292Z,0.00
2018-11-03T03:07:47.269Z,0.00
2018-11-03T03:08:47.253Z,0.00
2018-11-03T03:09:47.237Z,0.00
2018-11-03T03:10:47.278Z,0.00
2018-11-03T03:11:47.225Z,0.00
2018-11-03T03:12:47.209Z,0.00
2018-11-03T03:13:47.210Z,0.00
2018-11-03T03:14:47.186Z,0.00
2018-11-03T03:15:47.180Z,0.00
2018-11-03T03:16:47.210Z,0.00
2018-11-03T03:17:47.158Z,0.00
2018-11-03T03:18:47.140Z,0.00
2018-11-03T03:19:47.151Z,0.00
2018-11-03T03:20:47.124Z,0.00
2018-11-03T03:21:47.109Z,0.00
2018-11-03T03:22:47.133Z,0.00
2018-11-03T03:23:47.090Z,0.00
2018-11-03T03:24:47.078Z,0.00
2018-11-03T03:25:47.088Z,0.00
2018-11-03T03:26:47.055Z,0.00
2018-11-03T03:27:47.047Z,0.00
2018-11-03T03:28:47.152Z,0.00
2018-11-03T03:29:47.025Z,0.00
2018-11-03T03:30:47.023Z,0.00
2018-11-03T03:31:47.020Z,0.00
2018-11-03T03:32:46.990Z,0.00
2018-11-03T03:33:46.982Z,0.00
2018-11-03T03:34:47.000Z,0.00
2018-11-03T03:35:46.967Z,0.00
2018-11-03T03:36:46.953Z,0.00
2018-11-03T03:37:46.946Z,0.00
2018-11-03T03:38:46.928Z,0.00
2018-11-03T03:39:46.923Z,0.00
2018-11-03T03:40:46.956Z,0.00
2018-11-03T03:41:46.893Z,0.00
2018-11-03T03:42:46.885Z,0.00
2018-11-03T03:43:46.877Z,0.00
2018-11-03T03:44:46.872Z,0.00
2018-11-03T03:45:46.855Z,0.00
2018-11-03T03:46:46.905Z,0.00
2018-11-03T03:47:46.837Z,0.00
2018-11-03T03:48:46.823Z,0.00
2018-11-03T03:49:46.815Z,0.00
2018-11-03T03:50:46.808Z,0.00
2018-11-03T03:51:46.793Z,0.00
2018-11-03T03:52:46.842Z,0.00
2018-11-03T03:53:46.768Z,0.00
2018-11-03T03:54:46.765Z,0.00
2018-11-03T03:55:46.751Z,0.00
2018-11-03T03:56:46.740Z,0.00
2018-11-03T03:57:46.733Z,0.00
2018-11-03T03:58:46.752Z,0.00
2018-11-03T03:59:46.720Z,0.00
2018-11-03T04:00:46.701Z,0.00
2018-11-03T04:01:46.686Z,0.00
2018-11-03T04:02:46.671Z,0.00
2018-11-03T04:03:46.665Z,0.00
2018-11-03T04:04:46.732Z,0.00
2018-11-03T04:05:46.637Z,0.00
2018-11-03T04:06:46.643Z,0.00
2018-11-03T04:07:46.633Z,0.00
2018-11-03T04:08:46.611Z,0.00
2018-11-03T04:09:46.599Z,0.00
2018-11-03T04:10:46.745Z,0.00
2018-11-03T04:11:46.582Z,0.00
2018-11-03T04:12:46.573Z,0.00
2018-11-03T04:13:46.578Z,0.00
2018-11-03T04:14:46.560Z,0.00
2018-11-03T04:15:46.532Z,0.00
2018-11-03T04:16:46.580Z,0.00
2018-11-03T04:17:46.526Z,0.00
2018-11-03T04:18:46.509Z,0.00
2018-11-03T04:19:46.488Z,0.00
2018-11-03T04:20:46.482Z,0.00
2018-11-03T04:21:46.468Z,0.00
2018-11-03T04:22:46.498Z,0.00
2018-11-03T04:23:46.450Z,0.00
2018-11-03T04:24:46.439Z,0.00
2018-11-03T04:25:46.424Z,0.00
2018-11-03T04:26:46.418Z,0.00
2018-11-03T04:27:46.414Z,0.00
2018-11-03T04:28:46.470Z,0.00
2018-11-03T04:29:46.387Z,0.00
2018-11-03T04:30:46.380Z,0.00
2018-11-03T04:31:46.365Z,0.00
2018-11-03T04:32:46.357Z,0.00
2018-11-03T04:33:46.339Z,0.00
2018-11-03T04:34:46.381Z,0.00
2018-11-03T04:35:46.339Z,0.00
2018-11-03T04:36:46.312Z,0.00
2018-11-03T04:37:46.299Z,0.00
2018-11-03T04:38:46.307Z,0.00
2018-11-03T04:39:46.281Z,0.00
2018-11-03T04:40:46.326Z,0.00
2018-11-03T04:41:46.253Z,0.00
2018-11-03T04:42:46.247Z,0.00
2018-11-03T04:43:46.250Z,0.00
2018-11-03T04:44:46.229Z,0.00
2018-11-03T04:45:46.218Z,0.00
2018-11-03T04:46:46.261Z,0.00
2018-11-03T04:47:46.196Z,0.00
2018-11-03T04:48:46.179Z,0.00
2018-11-03T04:49:46.184Z,0.00
2018-11-03T04:50:46.163Z,0.00
2018-11-03T04:51:46.148Z,0.00
2018-11-03T04:52:46.196Z,0.00
2018-11-03T04:53:46.135Z,0.00
2018-11-03T04:54:46.123Z,0.00
2018-11-03T04:55:46.112Z,0.00
2018-11-03T04:56:46.101Z,0.00
2018-11-03T04:57:46.107Z,0.00
2018-11-03T04:58:46.111Z,0.00
2018-11-03T04:59:46.082Z,0.00
2018-11-03T05:00:46.062Z,0.00
2018-11-03T05:01:46.044Z,0.00
2018-11-03T05:02:46.043Z,0.00
2018-11-03T05:03:46.039Z,0.00
2018-11-03T05:04:46.082Z,0.00
2018-11-03T05:05:46.007Z,0.00
2018-11-03T05:06:46.005Z,0.00
2018-11-03T05:07:45.983Z,0.00
2018-11-03T05:08:45.974Z,0.00
2018-11-03T05:09:46.018Z,0.00
2018-11-03T05:10:46.007Z,0.00
2018-11-03T05:11:45.942Z,0.00
2018-11-03T05:12:45.934Z,0.00
2018-11-03T05:13:45.924Z,0.00
2018-11-03T05:14:45.903Z,0.00
2018-11-03T05:15:45.890Z,0.00
2018-11-03T05:16:45.926Z,0.00
2018-11-03T05:17:45.873Z,0.00
2018-11-03T05:18:45.865Z,0.00
2018-11-03T05:19:45.864Z,0.00
2018-11-03T05:20:45.846Z,0.00
2018-11-03T05:21:45.835Z,0.00
2018-11-03T05:22:46.124Z,0.00
2018-11-03T05:23:45.805Z,0.00
2018-11-03T05:24:45.805Z,0.00
2018-11-03T05:25:45.789Z,0.00
2018-11-03T05:26:45.793Z,0.00
2018-11-03T05:27:45.764Z,0.00
2018-11-03T05:28:45.796Z,0.00
2018-11-03T05:29:45.764Z,0.00
2018-11-03T05:30:45.733Z,0.00
2018-11-03T05:31:45.729Z,0.00
2018-11-03T05:32:45.721Z,0.00
2018-11-03T05:33:45.708Z,0.00
2018-11-03T05:34:45.746Z,0.00
2018-11-03T05:35:45.690Z,0.00
2018-11-03T05:36:45.670Z,0.00
2018-11-03T05:37:45.663Z,0.00
2018-11-03T05:38:45.668Z,0.00
2018-11-03T05:39:45.638Z,0.00
2018-11-03T05:40:45.673Z,0.00
2018-11-03T05:41:45.628Z,0.00
2018-11-03T05:42:45.614Z,0.00
2018-11-03T05:43:45.605Z,0.00
2018-11-03T05:44:45.592Z,0.00
2018-11-03T05:45:45.577Z,0.00
2018-11-03T05:46:45.624Z,0.00
2018-11-03T05:47:45.564Z,0.00
2018-11-03T05:48:45.544Z,0.00
2018-11-03T05:49:45.529Z,0.00
2018-11-03T05:50:45.522Z,0.00
2018-11-03T05:51:45.516Z,0.00
2018-11-03T05:52:45.672Z,0.00
2018-11-03T05:53:45.489Z,0.00
2018-11-03T05:54:45.475Z,4.00
2018-11-03T05:55:45.499Z,4.00
2018-11-03T05:56:45.454Z,0.00
2018-11-03T05:57:45.483Z,4.00
2018-11-03T05:58:45.533Z,4.00
2018-11-03T05:59:45.424Z,8.00
2018-11-03T06:00:45.435Z,8.00
2018-11-03T06:01:45.406Z,8.00
2018-11-03T06:02:45.402Z,8.00
2018-11-03T06:03:45.439Z,12.00
2018-11-03T06:04:45.414Z,16.00
2018-11-03T06:05:45.364Z,20.00
2018-11-03T06:06:45.357Z,24.00
2018-11-03T06:07:45.376Z,28.00
2018-11-03T06:08:45.394Z,36.00
2018-11-03T06:09:45.332Z,40.00
2018-11-03T06:10:45.355Z,48.00
2018-11-03T06:11:45.302Z,56.00
2018-11-03T06:12:45.284Z,72.00
2018-11-03T06:13:45.288Z,80.00
2018-11-03T06:14:45.267Z,96.00
2018-11-03T06:15:45.365Z,112.00
2018-11-03T06:16:45.302Z,132.00
2018-11-03T06:17:45.241Z,152.00
2018-11-03T06:18:45.227Z,176.00
2018-11-03T06:19:45.214Z,200.00
2018-11-03T06:20:45.204Z,228.00
2018-11-03T06:21:45.238Z,264.00
2018-11-03T06:22:45.248Z,296.00
2018-11-03T06:23:45.207Z,332.00
2018-11-03T06:24:45.157Z,368.00
2018-11-03T06:25:45.146Z,404.00
2018-11-03T06:26:45.171Z,440.00
2018-11-03T06:27:45.148Z,480.00
2018-11-03T06:28:45.166Z,520.00
2018-11-03T06:29:45.109Z,568.00
2018-11-03T06:30:45.099Z,620.00
2018-11-03T06:31:45.095Z,684.00
2018-11-03T06:32:45.084Z,748.00
2018-11-03T06:33:45.068Z,820.00
2018-11-03T06:34:45.113Z,892.00
2018-11-03T06:35:45.038Z,964.00
2018-11-03T06:36:45.034Z,1036.00
2018-11-03T06:37:45.019Z,1112.00
2018-11-03T06:38:45.051Z,1184.00
2018-11-03T06:39:45.009Z,1256.00
2018-11-03T06:40:45.067Z,1336.00
2018-11-03T06:41:44.975Z,1412.00
2018-11-03T06:42:44.975Z,1488.00
2018-11-03T06:43:44.957Z,1564.00
2018-11-03T06:44:44.941Z,1644.00
2018-11-03T06:45:44.942Z,1724.00
2018-11-03T06:46:45.063Z,1808.00
2018-11-03T06:47:44.916Z,1896.00
2018-11-03T06:48:44.904Z,1984.00
2018-11-03T06:49:44.887Z,2084.00
2018-11-03T06:50:44.876Z,2180.00
2018-11-03T06:51:44.957Z,2276.00
2018-11-03T06:52:45.054Z,2376.00
2018-11-03T06:53:44.848Z,2472.00
2018-11-03T06:54:44.855Z,2580.00
2018-11-03T06:55:44.827Z,2676.00
2018-11-03T06:56:44.819Z,2784.00
2018-11-03T06:57:44.822Z,2880.00
2018-11-03T06:58:44.855Z,2992.00
2018-11-03T06:59:44.784Z,3096.00
2018-11-03T07:00:44.782Z,3200.00
2018-11-03T07:01:44.767Z,3300.00
2018-11-03T07:02:44.753Z,3404.00
2018-11-03T07:03:44.755Z,3468.00
2018-11-03T07:04:44.781Z,3524.00
2018-11-03T07:05:44.724Z,3556.00
2018-11-03T07:06:44.706Z,3560.00
2018-11-03T07:07:44.700Z,3556.00
2018-11-03T07:08:44.687Z,3700.00
2018-11-03T07:09:44.683Z,3932.00
2018-11-03T07:10:44.732Z,4104.00
2018-11-03T07:11:44.714Z,4164.00
2018-11-03T07:12:44.977Z,4188.00
2018-11-03T07:13:44.632Z,4212.00
2018-11-03T07:14:44.625Z,4264.00
2018-11-03T07:15:44.621Z,4340.00
2018-11-03T07:16:44.638Z,4444.00
2018-11-03T07:17:44.590Z,4512.00
2018-11-03T07:18:44.580Z,4584.00
2018-11-03T07:19:44.574Z,4800.00
2018-11-03T07:20:44.657Z,5048.00
2018-11-03T07:21:44.628Z,5212.00
2018-11-03T07:22:44.590Z,5336.00
2018-11-03T07:23:44.566Z,5620.00
2018-11-03T07:24:44.552Z,5856.00
2018-11-03T07:25:44.559Z,6052.00
2018-11-03T07:26:44.505Z,6140.00
2018-11-03T07:27:44.491Z,6188.00
2018-11-03T07:28:44.537Z,6160.00
2018-11-03T07:29:44.590Z,6260.00
2018-11-03T07:30:44.457Z,6248.00
2018-11-03T07:31:44.475Z,6496.00
2018-11-03T07:32:44.456Z,6596.00
2018-11-03T07:33:44.422Z,6648.00
2018-11-03T07:34:44.617Z,6716.00
2018-11-03T07:35:44.395Z,6772.00
2018-11-03T07:36:44.396Z,6816.00
2018-11-03T07:37:44.373Z,6868.00
2018-11-03T07:38:44.371Z,6924.00
2018-11-03T07:39:44.379Z,6980.00
2018-11-03T07:40:44.409Z,7044.00
2018-11-03T07:41:44.337Z,7112.00
2018-11-03T07:42:44.407Z,7152.00
2018-11-03T07:43:44.348Z,7224.00
2018-11-03T07:44:44.312Z,7296.00
2018-11-03T07:45:44.294Z,7356.00
2018-11-03T07:46:44.322Z,7436.00
2018-11-03T07:47:44.348Z,7504.00
2018-11-03T07:48:44.357Z,7576.00
2018-11-03T07:49:44.259Z,7672.00
2018-11-03T07:50:44.316Z,7772.00
2018-11-03T07:51:44.313Z,7820.00
2018-11-03T07:52:44.278Z,7916.00
2018-11-03T07:53:44.223Z,8004.00
2018-11-03T07:54:44.219Z,7984.00
2018-11-03T07:55:44.193Z,8040.00
2018-11-03T07:56:44.173Z,8184.00
2018-11-03T07:57:44.183Z,8380.00
2018-11-03T07:58:44.204Z,8496.00
2018-11-03T07:59:44.151Z,8496.00
2018-11-03T08:00:44.307Z,8276.00
2018-11-03T08:01:44.128Z,8240.00
2018-11-03T08:02:44.116Z,8728.00
2018-11-03T08:03:44.098Z,8848.00
2018-11-03T08:04:44.127Z,8284.00
2018-11-03T08:05:44.135Z,8352.00
2018-11-03T08:06:44.060Z,8712.00
2018-11-03T08:07:44.051Z,9076.00
2018-11-03T08:08:44.037Z,8952.00
2018-11-03T08:09:44.028Z,9044.00
2018-11-03T08:10:44.074Z,9012.00
2018-11-03T08:11:44.065Z,8916.00
2018-11-03T08:12:44.017Z,8928.00
2018-11-03T08:13:43.991Z,8868.00
2018-11-03T08:14:43.981Z,8832.00
2018-11-03T08:15:44.071Z,8800.00
2018-11-03T08:16:44.042Z,8732.00
2018-11-03T08:17:43.950Z,8972.00
2018-11-03T08:18:43.930Z,8972.00
2018-11-03T08:19:43.932Z,9408.00
2018-11-03T08:20:43.907Z,9332.00
2018-11-03T08:21:43.904Z,9596.00
2018-11-03T08:22:43.931Z,9396.00
2018-11-03T08:23:43.879Z,9332.00
2018-11-03T08:24:43.867Z,9412.00
2018-11-03T08:25:43.853Z,9292.00
2018-11-03T08:26:43.842Z,8924.00
2018-11-03T08:27:43.840Z,9344.00
2018-11-03T08:28:43.869Z,9416.00
2018-11-03T08:29:43.808Z,9708.00
2018-11-03T08:30:43.797Z,9700.00
2018-11-03T08:31:44.014Z,9748.00
2018-11-03T08:32:43.786Z,9944.00
2018-11-03T08:33:43.812Z,10076.00
2018-11-03T08:34:44.139Z,9984.00
2018-11-03T08:35:43.880Z,9928.00
2018-11-03T08:36:43.872Z,9332.00
2018-11-03T08:37:43.955Z,9400.00
2018-11-03T08:38:43.726Z,9508.00
2018-11-03T08:39:43.833Z,9604.00
2018-11-03T08:40:43.859Z,9564.00
2018-11-03T08:41:43.699Z,9768.00
2018-11-03T08:42:43.690Z,8868.00
2018-11-03T08:43:43.697Z,9472.00
2018-11-03T08:44:43.660Z,9212.00
2018-11-03T08:45:43.674Z,8784.00
2018-11-03T08:46:43.689Z,8696.00
2018-11-03T08:47:43.616Z,8672.00
2018-11-03T08:48:43.696Z,8680.00
2018-11-03T08:49:43.751Z,8844.00
2018-11-03T08:50:43.681Z,9088.00
2018-11-03T08:51:43.885Z,9124.00
2018-11-03T08:52:43.713Z,9492.00
2018-11-03T08:53:43.763Z,9544.00
2018-11-03T08:54:43.597Z,9736.00
2018-11-03T08:55:43.533Z,9640.00
2018-11-03T08:56:43.605Z,9640.00
2018-11-03T08:57:43.522Z,9728.00
2018-11-03T08:58:43.595Z,9920.00
2018-11-03T08:59:43.693Z,9740.00
2018-11-03T09:00:43.475Z,9516.00
2018-11-03T09:01:43.514Z,9416.00
2018-11-03T09:02:43.517Z,9236.00
2018-11-03T09:03:43.491Z,9064.00
2018-11-03T09:04:43.489Z,9096.00
2018-11-03T09:05:43.433Z,9096.00
2018-11-03T09:06:43.462Z,9108.00
2018-11-03T09:07:43.424Z,9020.00
2018-11-03T09:08:43.426Z,9040.00
2018-11-03T09:09:43.416Z,9152.00
2018-11-03T09:10:43.420Z,8948.00
2018-11-03T09:11:43.364Z,9052.00
2018-11-03T09:12:43.357Z,9052.00
2018-11-03T09:13:43.359Z,9132.00
2018-11-03T09:14:43.369Z,9376.00
2018-11-03T09:15:43.335Z,9580.00
2018-11-03T09:16:43.406Z,9716.00
2018-11-03T09:17:43.330Z,9792.00
2018-11-03T09:18:43.337Z,9804.00
2018-11-03T09:19:43.279Z,9876.00
2018-11-03T09:20:43.264Z,9804.00
2018-11-03T09:21:43.344Z,9832.00
2018-11-03T09:22:43.375Z,9716.00
2018-11-03T09:23:43.239Z,9740.00
2018-11-03T09:24:43.236Z,9724.00
2018-11-03T09:25:43.293Z,9544.00
2018-11-03T09:26:43.211Z,9664.00
2018-11-03T09:27:43.252Z,9864.00
2018-11-03T09:28:43.266Z,9916.00
2018-11-03T09:29:43.197Z,10144.00
2018-11-03T09:30:43.183Z,10132.00
2018-11-03T09:31:43.152Z,10356.00
2018-11-03T09:32:43.154Z,10504.00
2018-11-03T09:33:43.144Z,10608.00
2018-11-03T09:34:43.219Z,10924.00
2018-11-03T09:35:43.106Z,10984.00
2018-11-03T09:36:43.137Z,11212.00
2018-11-03T09:37:43.074Z,11272.00
2018-11-03T09:38:43.150Z,11300.00
2018-11-03T09:39:43.072Z,11068.00
2018-11-03T09:40:43.101Z,10892.00
2018-11-03T09:41:43.054Z,11012.00
2018-11-03T09:42:43.037Z,11440.00
2018-11-03T09:43:43.086Z,11692.00
2018-11-03T09:44:43.127Z,11728.00
2018-11-03T09:45:43.014Z,11752.00
2018-11-03T09:46:43.085Z,11680.00
2018-11-03T09:47:42.963Z,11828.00
2018-11-03T09:48:43.035Z,11824.00
2018-11-03T09:49:42.940Z,11428.00
2018-11-03T09:50:43.063Z,11908.00
2018-11-03T09:51:42.929Z,11752.00
2018-11-03T09:52:43.031Z,11716.00
2018-11-03T09:53:42.935Z,11544.00
2018-11-03T09:54:42.896Z,12180.00
2018-11-03T09:55:42.876Z,12264.00
2018-11-03T09:56:42.952Z,12188.00
2018-11-03T09:57:42.895Z,12184.00
2018-11-03T09:58:42.966Z,11992.00
2018-11-03T09:59:42.846Z,12044.00
2018-11-03T10:00:42.824Z,11868.00
2018-11-03T10:01:42.846Z,11872.00
2018-11-03T10:02:42.976Z,11796.00
2018-11-03T10:03:42.838Z,11680.00
2018-11-03T10:04:42.906Z,11776.00
2018-11-03T10:05:42.821Z,11788.00
2018-11-03T10:06:42.845Z,11756.00
2018-11-03T10:07:42.761Z,11780.00
2018-11-03T10:08:42.756Z,11736.00
2018-11-03T10:09:42.749Z,11896.00
2018-11-03T10:10:42.827Z,12008.00
2018-11-03T10:11:42.703Z,12008.00
2018-11-03T10:12:42.696Z,11960.00
2018-11-03T10:13:42.685Z,11764.00
2018-11-03T10:14:42.855Z,11704.00
2018-11-03T10:15:42.742Z,11620.00
2018-11-03T10:16:42.867Z,11392.00
2018-11-03T10:17:42.749Z,11588.00
2018-11-03T10:18:42.756Z,11392.00
2018-11-03T10:19:42.693Z,11404.00
2018-11-03T10:20:42.630Z,11528.00
2018-11-03T10:21:42.630Z,11720.00
2018-11-03T10:22:42.703Z,11980.00
2018-11-03T10:23:42.580Z,12020.00
2018-11-03T10:24:42.650Z,11612.00
2018-11-03T10:25:42.558Z,12344.00
2018-11-03T10:26:42.560Z,12524.00
2018-11-03T10:27:42.535Z,12932.00
2018-11-03T10:28:42.579Z,12408.00
2018-11-03T10:29:42.514Z,13516.00
2018-11-03T10:30:42.494Z,13656.00
2018-11-03T10:31:42.489Z,13744.00
2018-11-03T10:32:42.482Z,13840.00
2018-11-03T10:33:42.574Z,13668.00
2018-11-03T10:34:42.500Z,13608.00
2018-11-03T10:35:42.443Z,13744.00
2018-11-03T10:36:42.425Z,13688.00
2018-11-03T10:37:42.437Z,13916.00
2018-11-03T10:38:42.423Z,14012.00
2018-11-03T10:39:42.449Z,13916.00
2018-11-03T10:40:42.601Z,14296.00
2018-11-03T10:41:42.439Z,14480.00
2018-11-03T10:42:42.362Z,14616.00
2018-11-03T10:43:42.560Z,14472.00
2018-11-03T10:44:42.344Z,14332.00
2018-11-03T10:45:42.376Z,14120.00
2018-11-03T10:46:42.383Z,14156.00
2018-11-03T10:47:42.313Z,14324.00
2018-11-03T10:48:42.353Z,14256.00
2018-11-03T10:49:42.284Z,13868.00
2018-11-03T10:50:42.304Z,13784.00
2018-11-03T10:51:42.321Z,14608.00
2018-11-03T10:52:42.289Z,14640.00
2018-11-03T10:53:42.356Z,15192.00
2018-11-03T10:54:42.229Z,15440.00
2018-11-03T10:55:42.220Z,15428.00
2018-11-03T10:56:42.225Z,15612.00
2018-11-03T10:57:42.218Z,15700.00
2018-11-03T10:58:42.236Z,15808.00
2018-11-03T10:59:42.174Z,15884.00
2018-11-03T11:00:42.166Z,16012.00
2018-11-03T11:01:42.164Z,16144.00
2018-11-03T11:02:42.154Z,16168.00
2018-11-03T11:03:42.251Z,16208.00
2018-11-03T11:04:42.164Z,16112.00
2018-11-03T11:05:42.152Z,16000.00
2018-11-03T11:06:42.109Z,15464.00
2018-11-03T11:07:42.088Z,15764.00
2018-11-03T11:08:42.086Z,15436.00
2018-11-03T11:09:42.083Z,15880.00
2018-11-03T11:10:42.226Z,15564.00
2018-11-03T11:11:42.055Z,15520.00
2018-11-03T11:12:42.036Z,15624.00
2018-11-03T11:13:42.046Z,15708.00
2018-11-03T11:14:42.035Z,15608.00
2018-11-03T11:15:42.032Z,15780.00
2018-11-03T11:16:42.115Z,15736.00
2018-11-03T11:17:41.983Z,15780.00
2018-11-03T11:18:41.970Z,15972.00
2018-11-03T11:19:41.957Z,15680.00
2018-11-03T11:20:41.947Z,15644.00
2018-11-03T11:21:41.996Z,15572.00
2018-11-03T11:22:41.958Z,15720.00
2018-11-03T11:23:42.003Z,15864.00
2018-11-03T11:24:41.979Z,15836.00
2018-11-03T11:25:41.891Z,15400.00
2018-11-03T11:26:41.885Z,15476.00
2018-11-03T11:27:41.894Z,15492.00
2018-11-03T11:28:41.893Z,15188.00
2018-11-03T11:29:41.862Z,15160.00
2018-11-03T11:30:41.838Z,15024.00
2018-11-03T11:31:41.827Z,14896.00
2018-11-03T11:32:41.841Z,14832.00
2018-11-03T11:33:41.831Z,14396.00
2018-11-03T11:34:41.841Z,14616.00
2018-11-03T11:35:41.785Z,14640.00
2018-11-03T11:36:41.778Z,14620.00
2018-11-03T11:37:41.880Z,14828.00
2018-11-03T11:38:41.781Z,15128.00
2018-11-03T11:39:41.767Z,15508.00
2018-11-03T11:40:41.775Z,15728.00
2018-11-03T11:41:41.728Z,15792.00
2018-11-03T11:42:41.733Z,16068.00
2018-11-03T11:43:41.708Z,15780.00
2018-11-03T11:44:41.685Z,15848.00
2018-11-03T11:45:41.694Z,15908.00
2018-11-03T11:46:41.726Z,15756.00
2018-11-03T11:47:41.653Z,15960.00
2018-11-03T11:48:41.641Z,16004.00
2018-11-03T11:49:41.629Z,15224.00
2018-11-03T11:50:41.618Z,16336.00
2018-11-03T11:51:41.626Z,16336.00
2018-11-03T11:52:41.659Z,16524.00
2018-11-03T11:53:41.616Z,15224.00
2018-11-03T11:54:41.609Z,15208.00
2018-11-03T11:55:41.571Z,14916.00
2018-11-03T11:56:41.586Z,15160.00
2018-11-03T11:57:41.546Z,15564.00
2018-11-03T11:58:41.595Z,15784.00
2018-11-03T11:59:41.526Z,15700.00
2018-11-03T12:00:41.610Z,16024.00
2018-11-03T12:01:41.495Z,15556.00
2018-11-03T12:02:41.582Z,15156.00
2018-11-03T12:03:41.514Z,14936.00
2018-11-03T12:04:41.531Z,14772.00
2018-11-03T12:05:41.525Z,14056.00
2018-11-03T12:06:41.458Z,13708.00
2018-11-03T12:07:41.441Z,13632.00
2018-11-03T12:08:41.482Z,14040.00
2018-11-03T12:09:41.417Z,14616.00
2018-11-03T12:10:41.471Z,14996.00
2018-11-03T12:11:41.448Z,15140.00
2018-11-03T12:12:41.440Z,14924.00
2018-11-03T12:13:41.405Z,13920.00
2018-11-03T12:14:41.418Z,13460.00
2018-11-03T12:15:41.363Z,13260.00
2018-11-03T12:16:41.471Z,12620.00
2018-11-03T12:17:41.376Z,12404.00
2018-11-03T12:18:41.326Z,12396.00
2018-11-03T12:19:41.321Z,12096.00
2018-11-03T12:20:41.367Z,11988.00
2018-11-03T12:21:41.357Z,12080.00
2018-11-03T12:22:41.477Z,12100.00
2018-11-03T12:23:41.268Z,13800.00
2018-11-03T12:24:41.257Z,15296.00
2018-11-03T12:25:41.309Z,14996.00
2018-11-03T12:26:41.267Z,14280.00
2018-11-03T12:27:41.207Z,14352.00
2018-11-03T12:28:41.258Z,14664.00
2018-11-03T12:29:41.191Z,14988.00
2018-11-03T12:30:41.240Z,16680.00
2018-11-03T12:31:41.171Z,16256.00
2018-11-03T12:32:41.164Z,17248.00
2018-11-03T12:33:41.148Z,18432.00
2018-11-03T12:34:41.182Z,17728.00